sensor_id;sensor_type;location;lat;lon;timestamp;pressure;altitude;pressure_sealevel;temperature;humidity
31717;BME280;18301;51.076;17.046;2023-08-06T00:01:44;99092.16;;;17.38;100.00
31717;BME280;18301;51.076;17.046;2023-08-06T00:06:46;99086.88;;;17.36;100.00
31717;BME280;18301;51.076;17.046;2023-08-06T00:11:47;99067.97;;;17.35;100.00
31717;BME280;18301;51.076;17.046;2023-08-06T00:16:49;99074.47;;;17.34;100.00
31717;BME280;18301;51.076;17.046;2023-08-06T00:21:50;99073.22;;;17.36;100.00
31717;BME280;18301;51.076;17.046;2023-08-06T00:26:52;99055.00;;;17.37;100.00
31717;BME280;18301;51.076;17.046;2023-08-06T00:31:54;99036.38;;;17.55;100.00
31717;BME280;18301;51.076;17.046;2023-08-06T00:36:55;99028.56;;;17.52;100.00
31717;BME280;18301;51.076;17.046;2023-08-06T00:41:57;99024.13;;;17.51;100.00
31717;BME280;18301;51.076;17.046;2023-08-06T00:46:59;98986.56;;;17.32;100.00
31717;BME280;18301;51.076;17.046;2023-08-06T00:52:02;98985.34;;;17.34;100.00
31717;BME280;18301;51.076;17.046;2023-08-06T00:57:07;98973.03;;;17.23;100.00
31717;BME280;18301;51.076;17.046;2023-08-06T01:02:09;98952.94;;;17.24;100.00
31717;BME280;18301;51.076;17.046;2023-08-06T01:18:06;98915.72;;;17.17;100.00
31717;BME280;18301;51.076;17.046;2023-08-06T01:23:08;98898.63;;;17.08;100.00
31717;BME280;18301;51.076;17.046;2023-08-06T01:34:03;98896.56;;;17.10;100.00
31717;BME280;18301;51.076;17.046;2023-08-06T01:39:06;98889.50;;;17.16;100.00
31717;BME280;18301;51.076;17.046;2023-08-06T01:44:07;98875.03;;;17.15;100.00
31717;BME280;18301;51.076;17.046;2023-08-06T01:49:09;98863.88;;;17.32;100.00
31717;BME280;18301;51.076;17.046;2023-08-06T01:54:10;98867.25;;;17.12;100.00
31717;BME280;18301;51.076;17.046;2023-08-06T01:59:12;98869.97;;;17.12;100.00
31717;BME280;18301;51.076;17.046;2023-08-06T02:04:13;98881.41;;;17.22;100.00
31717;BME280;18301;51.076;17.046;2023-08-06T02:09:15;98868.94;;;17.13;100.00
31717;BME280;18301;51.076;17.046;2023-08-06T02:14:16;98831.78;;;16.91;100.00
31717;BME280;18301;51.076;17.046;2023-08-06T02:19:18;98800.25;;;16.82;100.00
31717;BME280;18301;51.076;17.046;2023-08-06T02:24:19;98785.59;;;16.83;100.00
31717;BME280;18301;51.076;17.046;2023-08-06T02:29:21;98776.38;;;16.84;100.00
31717;BME280;18301;51.076;17.046;2023-08-06T02:34:22;98741.84;;;16.69;100.00
31717;BME280;18301;51.076;17.046;2023-08-06T02:39:24;98737.69;;;16.73;100.00
31717;BME280;18301;51.076;17.046;2023-08-06T02:44:28;98732.97;;;16.46;100.00
31717;BME280;18301;51.076;17.046;2023-08-06T02:49:29;98737.66;;;16.52;100.00
31717;BME280;18301;51.076;17.046;2023-08-06T02:54:31;98742.38;;;16.43;100.00
31717;BME280;18301;51.076;17.046;2023-08-06T02:59:32;98731.47;;;16.43;100.00
31717;BME280;18301;51.076;17.046;2023-08-06T03:04:34;98740.25;;;16.24;100.00
31717;BME280;18301;51.076;17.046;2023-08-06T03:09:35;98760.97;;;16.40;100.00
31717;BME280;18301;51.076;17.046;2023-08-06T03:14:37;98734.78;;;16.39;100.00
31717;BME280;18301;51.076;17.046;2023-08-06T03:19:39;98700.00;;;16.55;100.00
31717;BME280;18301;51.076;17.046;2023-08-06T03:24:40;98709.88;;;16.56;100.00
31717;BME280;18301;51.076;17.046;2023-08-06T03:29:42;98723.53;;;16.42;100.00
31717;BME280;18301;51.076;17.046;2023-08-06T03:34:43;98699.22;;;16.25;100.00
31717;BME280;18301;51.076;17.046;2023-08-06T03:39:45;98713.53;;;16.49;100.00
31717;BME280;18301;51.076;17.046;2023-08-06T03:44:46;98706.59;;;16.46;100.00
31717;BME280;18301;51.076;17.046;2023-08-06T03:49:49;98714.22;;;16.36;100.00
31717;BME280;18301;51.076;17.046;2023-08-06T03:54:51;98723.09;;;16.60;100.00
31717;BME280;18301;51.076;17.046;2023-08-06T03:59:52;98714.69;;;16.40;100.00
31717;BME280;18301;51.076;17.046;2023-08-06T04:04:56;98701.69;;;16.20;100.00
31717;BME280;18301;51.076;17.046;2023-08-06T04:09:58;98689.63;;;16.08;100.00
31717;BME280;18301;51.076;17.046;2023-08-06T04:15:00;98688.22;;;16.33;100.00
31717;BME280;18301;51.076;17.046;2023-08-06T04:20:02;98709.09;;;16.26;100.00
31717;BME280;18301;51.076;17.046;2023-08-06T04:25:04;98721.75;;;16.34;100.00
31717;BME280;18301;51.076;17.046;2023-08-06T04:30:06;98729.25;;;16.68;100.00
31717;BME280;18301;51.076;17.046;2023-08-06T04:35:10;98720.75;;;16.56;100.00
31717;BME280;18301;51.076;17.046;2023-08-06T04:40:12;98708.09;;;15.98;100.00
31717;BME280;18301;51.076;17.046;2023-08-06T04:45:14;98690.19;;;15.88;100.00
31717;BME280;18301;51.076;17.046;2023-08-06T04:50:16;98662.94;;;15.67;100.00
31717;BME280;18301;51.076;17.046;2023-08-06T04:55:17;98681.28;;;15.95;100.00
31717;BME280;18301;51.076;17.046;2023-08-06T05:00:19;98690.56;;;15.85;100.00
31717;BME280;18301;51.076;17.046;2023-08-06T05:05:21;98679.69;;;15.85;100.00
31717;BME280;18301;51.076;17.046;2023-08-06T05:10:24;98672.88;;;15.75;100.00
31717;BME280;18301;51.076;17.046;2023-08-06T05:15:26;98657.47;;;15.82;100.00
31717;BME280;18301;51.076;17.046;2023-08-06T05:20:27;98652.81;;;16.12;100.00
31717;BME280;18301;51.076;17.046;2023-08-06T05:25:29;98658.66;;;15.94;100.00
31717;BME280;18301;51.076;17.046;2023-08-06T05:30:31;98631.22;;;15.89;100.00
31717;BME280;18301;51.076;17.046;2023-08-06T05:35:33;98636.34;;;15.99;100.00
31717;BME280;18301;51.076;17.046;2023-08-06T05:40:34;98658.78;;;15.86;100.00
31717;BME280;18301;51.076;17.046;2023-08-06T05:45:36;98646.34;;;16.13;100.00
31717;BME280;18301;51.076;17.046;2023-08-06T05:50:38;98606.91;;;15.87;100.00
31717;BME280;18301;51.076;17.046;2023-08-06T05:55:39;98631.59;;;15.86;100.00
31717;BME280;18301;51.076;17.046;2023-08-06T06:00:41;98632.91;;;15.90;100.00
31717;BME280;18301;51.076;17.046;2023-08-06T06:05:42;98620.63;;;15.79;100.00
31717;BME280;18301;51.076;17.046;2023-08-06T06:10:44;98656.34;;;15.61;100.00
31717;BME280;18301;51.076;17.046;2023-08-06T06:15:48;98668.72;;;15.79;100.00
31717;BME280;18301;51.076;17.046;2023-08-06T06:20:50;98660.00;;;15.98;100.00
31717;BME280;18301;51.076;17.046;2023-08-06T06:25:51;98662.78;;;16.05;100.00
31717;BME280;18301;51.076;17.046;2023-08-06T06:30:53;98663.13;;;15.80;100.00
31717;BME280;18301;51.076;17.046;2023-08-06T06:35:54;98674.75;;;15.89;100.00
31717;BME280;18301;51.076;17.046;2023-08-06T06:40:56;98640.09;;;15.98;100.00
31717;BME280;18301;51.076;17.046;2023-08-06T06:46:01;98625.84;;;15.96;100.00
31717;BME280;18301;51.076;17.046;2023-08-06T06:51:03;98624.63;;;15.98;100.00
31717;BME280;18301;51.076;17.046;2023-08-06T06:56:04;98622.56;;;15.85;100.00
31717;BME280;18301;51.076;17.046;2023-08-06T07:01:07;98618.59;;;16.03;100.00
31717;BME280;18301;51.076;17.046;2023-08-06T07:06:08;98616.19;;;15.93;100.00
31717;BME280;18301;51.076;17.046;2023-08-06T07:11:10;98622.09;;;15.97;100.00
31717;BME280;18301;51.076;17.046;2023-08-06T07:16:11;98614.34;;;16.15;100.00
31717;BME280;18301;51.076;17.046;2023-08-06T07:21:13;98616.75;;;16.25;100.00
31717;BME280;18301;51.076;17.046;2023-08-06T07:26:16;98613.25;;;16.31;100.00
31717;BME280;18301;51.076;17.046;2023-08-06T07:31:17;98623.94;;;16.11;100.00
31717;BME280;18301;51.076;17.046;2023-08-06T07:36:20;98601.41;;;16.17;100.00
31717;BME280;18301;51.076;17.046;2023-08-06T07:41:22;98579.19;;;16.14;100.00
31717;BME280;18301;51.076;17.046;2023-08-06T07:46:24;98586.22;;;16.08;100.00
31717;BME280;18301;51.076;17.046;2023-08-06T07:51:25;98589.19;;;16.13;100.00
31717;BME280;18301;51.076;17.046;2023-08-06T07:56:27;98576.91;;;16.17;100.00
31717;BME280;18301;51.076;17.046;2023-08-06T08:01:28;98569.53;;;16.11;100.00
31717;BME280;18301;51.076;17.046;2023-08-06T08:06:30;98558.47;;;16.19;100.00
31717;BME280;18301;51.076;17.046;2023-08-06T08:11:31;98544.09;;;15.82;100.00
31717;BME280;18301;51.076;17.046;2023-08-06T08:16:33;98539.56;;;15.90;100.00
31717;BME280;18301;51.076;17.046;2023-08-06T08:21:35;98522.53;;;16.02;100.00
31717;BME280;18301;51.076;17.046;2023-08-06T08:26:36;98516.38;;;15.94;100.00
31717;BME280;18301;51.076;17.046;2023-08-06T08:31:38;98514.81;;;15.84;100.00
31717;BME280;18301;51.076;17.046;2023-08-06T08:36:41;98516.88;;;15.82;100.00
31717;BME280;18301;51.076;17.046;2023-08-06T08:41:42;98529.59;;;16.18;100.00
31717;BME280;18301;51.076;17.046;2023-08-06T08:46:44;98530.03;;;16.22;100.00
31717;BME280;18301;51.076;17.046;2023-08-06T08:51:46;98536.19;;;16.30;100.00
31717;BME280;18301;51.076;17.046;2023-08-06T08:56:49;98523.44;;;16.59;100.00
31717;BME280;18301;51.076;17.046;2023-08-06T09:01:50;98514.22;;;16.53;100.00
31717;BME280;18301;51.076;17.046;2023-08-06T09:06:54;98503.50;;;16.24;100.00
31717;BME280;18301;51.076;17.046;2023-08-06T09:12:00;98516.56;;;16.35;100.00
31717;BME280;18301;51.076;17.046;2023-08-06T09:17:05;98510.00;;;16.51;100.00
31717;BME280;18301;51.076;17.046;2023-08-06T09:22:11;98505.75;;;16.20;100.00
31717;BME280;18301;51.076;17.046;2023-08-06T09:27:15;98490.25;;;16.42;100.00
31717;BME280;18301;51.076;17.046;2023-08-06T09:32:16;98489.38;;;16.35;100.00
31717;BME280;18301;51.076;17.046;2023-08-06T09:37:18;98497.44;;;16.28;100.00
31717;BME280;18301;51.076;17.046;2023-08-06T09:42:19;98495.50;;;16.22;100.00
31717;BME280;18301;51.076;17.046;2023-08-06T09:47:23;98494.84;;;16.42;100.00
31717;BME280;18301;51.076;17.046;2023-08-06T09:52:25;98506.25;;;16.30;100.00
31717;BME280;18301;51.076;17.046;2023-08-06T09:57:27;98520.75;;;16.38;100.00
31717;BME280;18301;51.076;17.046;2023-08-06T10:02:29;98525.31;;;16.30;100.00
31717;BME280;18301;51.076;17.046;2023-08-06T10:07:31;98528.16;;;16.22;100.00
31717;BME280;18301;51.076;17.046;2023-08-06T10:12:35;98510.84;;;16.51;100.00
31717;BME280;18301;51.076;17.046;2023-08-06T10:17:37;98493.66;;;16.51;100.00
31717;BME280;18301;51.076;17.046;2023-08-06T10:23:02;98477.72;;;16.48;100.00
31717;BME280;18301;51.076;17.046;2023-08-06T10:28:07;98471.38;;;16.41;100.00
31717;BME280;18301;51.076;17.046;2023-08-06T10:33:11;98473.13;;;16.48;100.00
31717;BME280;18301;51.076;17.046;2023-08-06T10:38:15;98451.41;;;16.62;100.00
31717;BME280;18301;51.076;17.046;2023-08-06T10:43:32;98435.66;;;16.78;100.00
31717;BME280;18301;51.076;17.046;2023-08-06T10:48:41;98440.16;;;16.71;100.00
31717;BME280;18301;51.076;17.046;2023-08-06T10:53:49;98446.34;;;16.52;100.00
31717;BME280;18301;51.076;17.046;2023-08-06T10:58:53;98429.00;;;16.31;100.00
31717;BME280;18301;51.076;17.046;2023-08-06T11:03:54;98413.13;;;16.63;100.00
31717;BME280;18301;51.076;17.046;2023-08-06T11:08:56;98415.63;;;16.65;100.00
31717;BME280;18301;51.076;17.046;2023-08-06T11:13:57;98423.78;;;16.65;100.00
31717;BME280;18301;51.076;17.046;2023-08-06T11:18:59;98418.38;;;16.71;100.00
31717;BME280;18301;51.076;17.046;2023-08-06T11:24:01;98426.41;;;16.79;100.00
31717;BME280;18301;51.076;17.046;2023-08-06T11:29:03;98411.41;;;16.90;100.00
31717;BME280;18301;51.076;17.046;2023-08-06T11:34:04;98425.63;;;16.86;100.00
31717;BME280;18301;51.076;17.046;2023-08-06T11:39:06;98419.31;;;16.78;100.00
31717;BME280;18301;51.076;17.046;2023-08-06T11:44:10;98411.19;;;16.92;100.00
31717;BME280;18301;51.076;17.046;2023-08-06T11:49:15;98426.97;;;17.03;100.00
31717;BME280;18301;51.076;17.046;2023-08-06T11:54:16;98434.50;;;17.01;100.00
31717;BME280;18301;51.076;17.046;2023-08-06T11:59:31;98437.56;;;16.85;100.00
31717;BME280;18301;51.076;17.046;2023-08-06T12:04:58;98432.34;;;16.90;100.00
31717;BME280;18301;51.076;17.046;2023-08-06T12:10:00;98443.63;;;16.87;100.00
31717;BME280;18301;51.076;17.046;2023-08-06T12:15:03;98455.63;;;16.99;100.00
31717;BME280;18301;51.076;17.046;2023-08-06T12:20:05;98457.06;;;16.88;100.00
31717;BME280;18301;51.076;17.046;2023-08-06T12:25:09;98466.72;;;16.91;100.00
31717;BME280;18301;51.076;17.046;2023-08-06T12:30:13;98478.84;;;16.88;100.00
31717;BME280;18301;51.076;17.046;2023-08-06T12:35:14;98468.41;;;16.92;100.00
31717;BME280;18301;51.076;17.046;2023-08-06T12:40:16;98478.94;;;17.01;100.00
31717;BME280;18301;51.076;17.046;2023-08-06T12:45:36;98483.44;;;16.81;100.00
31717;BME280;18301;51.076;17.046;2023-08-06T12:50:38;98495.69;;;17.05;100.00
31717;BME280;18301;51.076;17.046;2023-08-06T12:55:39;98495.91;;;17.03;100.00
31717;BME280;18301;51.076;17.046;2023-08-06T13:00:42;98493.63;;;17.07;100.00
31717;BME280;18301;51.076;17.046;2023-08-06T13:05:43;98492.66;;;17.21;100.00
31717;BME280;18301;51.076;17.046;2023-08-06T13:10:46;98506.31;;;17.28;100.00
31717;BME280;18301;51.076;17.046;2023-08-06T13:15:48;98513.06;;;17.39;100.00
31717;BME280;18301;51.076;17.046;2023-08-06T13:20:53;98525.94;;;17.10;100.00
31717;BME280;18301;51.076;17.046;2023-08-06T13:25:55;98535.97;;;17.03;100.00
31717;BME280;18301;51.076;17.046;2023-08-06T13:30:57;98533.56;;;17.28;100.00
31717;BME280;18301;51.076;17.046;2023-08-06T13:35:58;98532.84;;;17.06;100.00
31717;BME280;18301;51.076;17.046;2023-08-06T13:41:00;98547.06;;;17.08;100.00
31717;BME280;18301;51.076;17.046;2023-08-06T13:46:02;98558.03;;;16.87;100.00
31717;BME280;18301;51.076;17.046;2023-08-06T13:51:03;98562.25;;;17.24;100.00
31717;BME280;18301;51.076;17.046;2023-08-06T13:56:06;98572.72;;;16.86;100.00
31717;BME280;18301;51.076;17.046;2023-08-06T14:01:11;98572.78;;;16.99;100.00
31717;BME280;18301;51.076;17.046;2023-08-06T14:06:14;98576.72;;;16.90;100.00
31717;BME280;18301;51.076;17.046;2023-08-06T14:11:16;98578.00;;;16.66;100.00
31717;BME280;18301;51.076;17.046;2023-08-06T14:16:17;98574.78;;;16.84;100.00
31717;BME280;18301;51.076;17.046;2023-08-06T14:21:19;98587.97;;;16.58;100.00
31717;BME280;18301;51.076;17.046;2023-08-06T14:26:20;98583.34;;;16.80;100.00
31717;BME280;18301;51.076;17.046;2023-08-06T14:31:22;98591.91;;;16.77;100.00
31717;BME280;18301;51.076;17.046;2023-08-06T14:36:24;98598.72;;;16.88;100.00
31717;BME280;18301;51.076;17.046;2023-08-06T14:41:25;98597.50;;;16.91;100.00
31717;BME280;18301;51.076;17.046;2023-08-06T14:46:27;98605.44;;;16.92;100.00
31717;BME280;18301;51.076;17.046;2023-08-06T14:51:28;98605.53;;;17.06;100.00
31717;BME280;18301;51.076;17.046;2023-08-06T14:56:30;98610.91;;;16.92;100.00
31717;BME280;18301;51.076;17.046;2023-08-06T15:01:31;98609.75;;;17.08;100.00
31717;BME280;18301;51.076;17.046;2023-08-06T15:06:33;98615.91;;;16.89;100.00
31717;BME280;18301;51.076;17.046;2023-08-06T15:11:35;98617.97;;;16.87;100.00
31717;BME280;18301;51.076;17.046;2023-08-06T15:16:36;98617.94;;;17.08;100.00
31717;BME280;18301;51.076;17.046;2023-08-06T15:21:38;98632.88;;;17.12;100.00
31717;BME280;18301;51.076;17.046;2023-08-06T15:26:39;98638.53;;;16.89;100.00
31717;BME280;18301;51.076;17.046;2023-08-06T15:31:41;98642.66;;;16.78;100.00
31717;BME280;18301;51.076;17.046;2023-08-06T15:36:42;98655.28;;;16.86;100.00
31717;BME280;18301;51.076;17.046;2023-08-06T15:41:44;98662.59;;;16.64;100.00
31717;BME280;18301;51.076;17.046;2023-08-06T15:46:45;98655.06;;;16.45;100.00
31717;BME280;18301;51.076;17.046;2023-08-06T15:51:47;98657.53;;;16.61;100.00
31717;BME280;18301;51.076;17.046;2023-08-06T15:56:48;98652.47;;;16.37;100.00
31717;BME280;18301;51.076;17.046;2023-08-06T16:01:50;98651.81;;;16.34;100.00
31717;BME280;18301;51.076;17.046;2023-08-06T16:06:51;98656.56;;;16.47;100.00
31717;BME280;18301;51.076;17.046;2023-08-06T16:11:53;98658.63;;;16.45;100.00
31717;BME280;18301;51.076;17.046;2023-08-06T16:16:56;98650.75;;;16.50;100.00
31717;BME280;18301;51.076;17.046;2023-08-06T16:21:57;98653.69;;;16.55;100.00
31717;BME280;18301;51.076;17.046;2023-08-06T16:26:59;98673.03;;;16.61;100.00
31717;BME280;18301;51.076;17.046;2023-08-06T16:32:00;98694.59;;;16.41;100.00
31717;BME280;18301;51.076;17.046;2023-08-06T16:37:02;98696.78;;;16.30;100.00
31717;BME280;18301;51.076;17.046;2023-08-06T16:42:05;98695.53;;;16.48;100.00
31717;BME280;18301;51.076;17.046;2023-08-06T16:47:07;98710.09;;;16.40;100.00
31717;BME280;18301;51.076;17.046;2023-08-06T16:52:10;98700.66;;;16.21;100.00
31717;BME280;18301;51.076;17.046;2023-08-06T16:57:12;98691.06;;;16.25;100.00
31717;BME280;18301;51.076;17.046;2023-08-06T17:02:13;98691.44;;;16.22;100.00
31717;BME280;18301;51.076;17.046;2023-08-06T17:07:15;98722.81;;;16.18;100.00
31717;BME280;18301;51.076;17.046;2023-08-06T17:12:16;98729.38;;;16.09;100.00
31717;BME280;18301;51.076;17.046;2023-08-06T17:17:21;98746.53;;;16.24;100.00
31717;BME280;18301;51.076;17.046;2023-08-06T17:22:22;98756.38;;;16.25;100.00
31717;BME280;18301;51.076;17.046;2023-08-06T17:27:24;98761.56;;;16.35;100.00
31717;BME280;18301;51.076;17.046;2023-08-06T17:32:25;98751.91;;;16.03;100.00
31717;BME280;18301;51.076;17.046;2023-08-06T17:37:27;98763.47;;;16.05;100.00
31717;BME280;18301;51.076;17.046;2023-08-06T17:42:28;98757.72;;;16.00;100.00
31717;BME280;18301;51.076;17.046;2023-08-06T17:47:30;98740.63;;;16.21;100.00
31717;BME280;18301;51.076;17.046;2023-08-06T17:52:38;98726.66;;;16.09;100.00
31717;BME280;18301;51.076;17.046;2023-08-06T17:57:39;98747.41;;;15.80;100.00
31717;BME280;18301;51.076;17.046;2023-08-06T18:02:41;98759.22;;;15.87;100.00
31717;BME280;18301;51.076;17.046;2023-08-06T18:07:43;98765.22;;;15.98;100.00
31717;BME280;18301;51.076;17.046;2023-08-06T18:12:48;98752.28;;;16.00;100.00
31717;BME280;18301;51.076;17.046;2023-08-06T18:17:50;98752.50;;;15.83;100.00
31717;BME280;18301;51.076;17.046;2023-08-06T18:22:51;98767.09;;;15.82;100.00
31717;BME280;18301;51.076;17.046;2023-08-06T18:27:53;98779.72;;;15.60;100.00
31717;BME280;18301;51.076;17.046;2023-08-06T18:32:54;98782.22;;;15.70;100.00
31717;BME280;18301;51.076;17.046;2023-08-06T18:37:56;98789.50;;;15.70;100.00
31717;BME280;18301;51.076;17.046;2023-08-06T18:42:59;98787.53;;;15.78;100.00
31717;BME280;18301;51.076;17.046;2023-08-06T18:48:00;98795.25;;;15.90;100.00
31717;BME280;18301;51.076;17.046;2023-08-06T18:53:04;98802.75;;;15.87;100.00
31717;BME280;18301;51.076;17.046;2023-08-06T18:58:05;98805.03;;;15.99;100.00
31717;BME280;18301;51.076;17.046;2023-08-06T19:03:10;98803.31;;;15.98;100.00
31717;BME280;18301;51.076;17.046;2023-08-06T19:08:12;98804.19;;;15.98;100.00
31717;BME280;18301;51.076;17.046;2023-08-06T19:13:14;98799.59;;;15.99;100.00
31717;BME280;18301;51.076;17.046;2023-08-06T19:18:15;98793.75;;;16.02;100.00
31717;BME280;18301;51.076;17.046;2023-08-06T19:23:17;98786.63;;;16.01;100.00
31717;BME280;18301;51.076;17.046;2023-08-06T19:28:19;98778.00;;;15.97;100.00
31717;BME280;18301;51.076;17.046;2023-08-06T19:33:22;98769.00;;;15.97;100.00
31717;BME280;18301;51.076;17.046;2023-08-06T19:38:24;98774.91;;;16.00;100.00
31717;BME280;18301;51.076;17.046;2023-08-06T19:43:25;98762.25;;;15.93;100.00
31717;BME280;18301;51.076;17.046;2023-08-06T19:48:27;98768.22;;;15.88;100.00
31717;BME280;18301;51.076;17.046;2023-08-06T19:53:32;98775.19;;;15.91;100.00
31717;BME280;18301;51.076;17.046;2023-08-06T19:58:34;98765.59;;;15.95;100.00
31717;BME280;18301;51.076;17.046;2023-08-06T20:03:36;98769.75;;;15.91;100.00
31717;BME280;18301;51.076;17.046;2023-08-06T20:08:44;98770.88;;;15.96;100.00
31717;BME280;18301;51.076;17.046;2023-08-06T20:13:45;98784.00;;;15.93;100.00
31717;BME280;18301;51.076;17.046;2023-08-06T20:18:47;98787.38;;;15.95;100.00
31717;BME280;18301;51.076;17.046;2023-08-06T20:23:48;98780.91;;;15.96;100.00
31717;BME280;18301;51.076;17.046;2023-08-06T20:28:50;98782.88;;;15.87;100.00
31717;BME280;18301;51.076;17.046;2023-08-06T20:33:52;98800.69;;;15.90;100.00
31717;BME280;18301;51.076;17.046;2023-08-06T20:38:53;98806.03;;;15.83;100.00
31717;BME280;18301;51.076;17.046;2023-08-06T20:43:55;98803.78;;;15.86;100.00
31717;BME280;18301;51.076;17.046;2023-08-06T20:48:56;98802.38;;;15.91;100.00
31717;BME280;18301;51.076;17.046;2023-08-06T20:53:58;98804.06;;;15.92;100.00
31717;BME280;18301;51.076;17.046;2023-08-06T20:58:59;98814.56;;;15.95;100.00
31717;BME280;18301;51.076;17.046;2023-08-06T21:04:03;98811.22;;;15.93;100.00
31717;BME280;18301;51.076;17.046;2023-08-06T21:09:05;98822.53;;;15.81;100.00
31717;BME280;18301;51.076;17.046;2023-08-06T21:14:08;98825.56;;;15.86;100.00
31717;BME280;18301;51.076;17.046;2023-08-06T21:19:09;98834.09;;;15.83;100.00
31717;BME280;18301;51.076;17.046;2023-08-06T21:24:11;98831.06;;;15.78;100.00
31717;BME280;18301;51.076;17.046;2023-08-06T21:29:12;98829.38;;;15.77;100.00
31717;BME280;18301;51.076;17.046;2023-08-06T21:34:14;98826.72;;;15.69;100.00
31717;BME280;18301;51.076;17.046;2023-08-06T21:39:16;98831.44;;;15.75;100.00
31717;BME280;18301;51.076;17.046;2023-08-06T21:44:18;98842.31;;;15.75;100.00
31717;BME280;18301;51.076;17.046;2023-08-06T21:49:19;98845.03;;;15.75;100.00
31717;BME280;18301;51.076;17.046;2023-08-06T21:54:21;98838.44;;;15.70;100.00
31717;BME280;18301;51.076;17.046;2023-08-06T21:59:22;98841.03;;;15.63;100.00
31717;BME280;18301;51.076;17.046;2023-08-06T22:04:24;98828.47;;;15.62;100.00
31717;BME280;18301;51.076;17.046;2023-08-06T22:09:25;98840.03;;;15.64;100.00
31717;BME280;18301;51.076;17.046;2023-08-06T22:14:27;98831.56;;;15.59;100.00
31717;BME280;18301;51.076;17.046;2023-08-06T22:19:28;98831.56;;;15.59;100.00
31717;BME280;18301;51.076;17.046;2023-08-06T22:24:30;98824.44;;;15.58;100.00
31717;BME280;18301;51.076;17.046;2023-08-06T22:29:31;98829.38;;;15.54;100.00
31717;BME280;18301;51.076;17.046;2023-08-06T22:34:33;98829.59;;;15.53;100.00
31717;BME280;18301;51.076;17.046;2023-08-06T22:39:35;98822.16;;;15.47;100.00
31717;BME280;18301;51.076;17.046;2023-08-06T22:44:36;98826.28;;;15.42;100.00
31717;BME280;18301;51.076;17.046;2023-08-06T22:49:38;98820.75;;;15.51;100.00
31717;BME280;18301;51.076;17.046;2023-08-06T22:54:40;98818.59;;;15.46;100.00
31717;BME280;18301;51.076;17.046;2023-08-06T22:59:46;98826.66;;;15.39;100.00
31717;BME280;18301;51.076;17.046;2023-08-06T23:04:48;98822.88;;;15.40;100.00
31717;BME280;18301;51.076;17.046;2023-08-06T23:09:49;98827.59;;;15.47;100.00
31717;BME280;18301;51.076;17.046;2023-08-06T23:14:51;98826.56;;;15.48;100.00
31717;BME280;18301;51.076;17.046;2023-08-06T23:19:52;98827.13;;;15.43;100.00
31717;BME280;18301;51.076;17.046;2023-08-06T23:24:54;98822.94;;;15.32;100.00
31717;BME280;18301;51.076;17.046;2023-08-06T23:29:56;98816.56;;;15.25;100.00
31717;BME280;18301;51.076;17.046;2023-08-06T23:34:57;98825.06;;;15.22;100.00
31717;BME280;18301;51.076;17.046;2023-08-06T23:39:59;98831.91;;;15.18;100.00
31717;BME280;18301;51.076;17.046;2023-08-06T23:45:00;98841.19;;;15.24;100.00
31717;BME280;18301;51.076;17.046;2023-08-06T23:50:02;98840.34;;;15.23;100.00
31717;BME280;18301;51.076;17.046;2023-08-06T23:55:03;98841.31;;;15.30;100.00
